Benton Harbor, MI (49022)

4:08 AM EST on February 14, 2016 (GMT -0500)
Bernice Riverview | | Change Station
CLOSE
Current Station
Personal Weather Station
Location: St. Joseph, MI
Elevation: 659 ft
Nearby Weather Stations

Elev 659 ft 42.10 °N, 86.47 °W | Updated 13 minutes ago

Overcast
Overcast
8.5 °F
Feels Like -2 °F
N
5.8
Wind Variable Wind from ESE

Today
High -- | Low -- °F
--% Chance of Precip.
Yesterday
High -- | Low -- °F
Precip. -- in
Pressure 30.49 in
Visibility 10.0 miles
Clouds Overcast 3100 ft
Windchill -2 °F
Dew Point 4 °F
Humidity 80%
Rainfall 0.00 in
Snow Depth Not available.
7:43 AM 6:16 PM
Waxing Crescent, 39% visible
METAR KBEH 140853Z AUTO 12007KT 10SM OVC031 M11/M16 A3045 RMK AO2 SLP324 T11111156 58009
Pressure 30.49 in
Visibility 10.0 miles
Clouds Overcast 3100 ft
Windchill -2 °F
Dew Point 4 °F
Humidity 80%
Rainfall 0.00 in
Snow Depth Not available.
7:43 AM 6:16 PM
Waxing Crescent, 39% visible
METAR KBEH 140853Z AUTO 12007KT 10SM OVC031 M11/M16 A3045 RMK AO2 SLP324 T11111156 58009

10-Day Weather Forecast

Almanac

Astronomy

Feb. 14, 2016 Rise Set
Actual Time
Civil Twilight
Nautical Twilight
Astronomical Twilight
Moon
Length of Visible Light
Length of Day
Tomorrow will be .
, % of the Moon is Illuminated

Today's Extremes

State Highs State Lows

Community

WunderPhotos

Upload Photos

1,892,763 photos uploaded!

WunderBlog® & News

Nearby

Air Quality

  Air Quality AQ Index Pollutant
Not available.

Snow Depth

Station Depth Elevation

Earthquake Activity

City Distance Mag. Time & Date
Minimum magnitude displayed is 2.5.

Coastal Water Temperatures

Place Temperature

Stations

Nearby Weather Stations

Station Location Temp. Windchill Dew Point Humidity Wind Precip. Elev Updated Type
                   

Watches & Warnings

There are currently no watches in effect.